Time;durP1;ratioP1;P1;durP2;ratioP2;P2;SDS_P1;SDS_P2;PMS_P1;PMS_P2;Temp;Humidity;BMP_temperature;BMP_pressure;BME280_temperature;BME280_humidity;BME280_pressure;Samples;Min_cycle;Max_cycle;Signal;HPM_P1;HPM_P2
2022/07/20 18:26:12;;;;;;;;;6.00;6.00;;;;;23.84;63.87;101400.59;5134359;27;45391;-64
2022/07/20 18:28:39;;;;;;;;;4.75;4.75;;;;;23.98;62.76;101404.84;5117173;27;45420;-63
2022/07/20 18:31:05;;;;;;;;;5.25;5.00;;;;;24.05;62.73;101403.25;5116448;27;45243;-63
2022/07/20 18:33:30;;;;;;;;;5.75;5.00;;;;;24.08;62.85;101416.66;5116533;27;45421;-64
2022/07/20 18:35:55;;;;;;;;;6.25;5.25;;;;;24.12;62.62;101416.25;5116711;27;45334;-63
2022/07/20 18:38:22;;;;;;;;;5.00;5.00;;;;;24.13;62.79;101428.06;5117141;27;45309;-64
2022/07/20 18:40:48;;;;;;;;;4.50;4.50;;;;;24.09;63.11;101419.25;5116863;27;45455;-64
2022/07/20 18:43:14;;;;;;;;;4.25;4.25;;;;;23.95;63.52;101427.88;5116843;27;45323;-64
2022/07/20 18:45:54;;;;;;;;;5.25;4.50;;;;;23.87;63.75;101422.25;5115693;27;45298;-64
2022/07/20 18:48:21;;;;;;;;;5.00;5.00;;;;;23.82;64.12;101424.50;5116561;27;45378;-64
2022/07/20 18:50:47;;;;;;;;;5.75;5.75;;;;;23.74;64.09;101427.94;5108719;27;45542;-63
2022/07/20 18:53:14;;;;;;;;;5.75;5.00;;;;;23.72;64.47;101429.97;5108663;27;45258;-63
2022/07/20 18:55:39;;;;;;;;;4.00;4.00;;;;;23.64;64.69;101438.03;5109232;27;46225;-63
2022/07/20 18:58:05;;;;;;;;;5.00;4.50;;;;;23.56;64.65;101445.19;5108566;27;45357;-62
2022/07/20 19:00:31;;;;;;;;;6.50;5.50;;;;;23.51;64.97;101448.31;5116187;27;45401;-64
2022/07/20 19:02:57;;;;;;;;;5.50;5.50;;;;;23.41;65.92;101441.88;5116452;27;45722;-64
2022/07/20 19:05:23;;;;;;;;;5.00;5.00;;;;;23.29;65.54;101452.06;5116245;27;45317;-64
2022/07/20 19:07:48;;;;;;;;;6.25;6.25;;;;;23.25;65.49;101430.56;5116573;27;45418;-63
2022/07/20 19:10:14;;;;;;;;;8.75;5.75;;;;;23.33;65.37;101450.78;5116247;27;45189;-64
2022/07/20 19:12:39;;;;;;;;;21.25;20.25;;;;;23.42;65.32;101456.44;5116389;27;45332;-64
2022/07/20 19:15:05;;;;;;;;;7.75;7.00;;;;;23.37;65.50;101457.72;5115467;27;50563;-64
2022/07/20 19:17:34;;;;;;;;;7.00;6.00;;;;;23.37;65.21;101465.94;5116155;27;45314;-63
2022/07/20 19:19:59;;;;;;;;;4.50;4.50;;;;;23.38;65.15;101470.41;5116694;27;45250;-63
2022/07/20 19:22:25;;;;;;;;;8.25;5.00;;;;;23.34;65.26;101479.00;5116151;27;45469;-63
2022/07/20 19:24:51;;;;;;;;;5.50;5.00;;;;;23.22;64.85;101477.38;5115294;27;47005;-63
2022/07/20 19:27:16;;;;;;;;;2.75;2.75;;;;;23.13;64.60;101475.44;5101676;27;45424;-64
2022/07/20 19:29:41;;;;;;;;;4.25;3.00;;;;;23.05;65.13;101476.09;5102462;27;45317;-63
2022/07/20 19:32:07;;;;;;;;;5.50;4.50;;;;;22.96;65.52;101480.50;5101834;27;45498;-64
2022/07/20 19:34:32;;;;;;;;;19.25;19.25;;;;;22.93;65.18;101482.63;5083751;27;45986;-63
2022/07/20 19:36:57;;;;;;;;;6.00;6.00;;;;;22.94;65.18;101482.50;5095263;27;45243;-65
2022/07/20 19:39:23;;;;;;;;;5.25;4.00;;;;;22.91;64.15;101473.66;5098877;27;45390;-63
2022/07/20 19:41:48;;;;;;;;;4.00;4.00;;;;;22.89;63.98;101473.78;5096083;27;45326;-65
2022/07/20 19:44:13;;;;;;;;;4.00;4.00;;;;;22.78;64.50;101468.41;5097022;27;47541;-65
2022/07/20 19:46:39;;;;;;;;;5.75;3.00;;;;;22.87;64.97;101484.03;5101057;27;45244;-63
2022/07/20 19:49:04;;;;;;;;;8.25;4.25;;;;;22.92;64.71;101489.94;5101336;27;45249;-63
2022/07/20 19:51:30;;;;;;;;;5.75;4.75;;;;;22.96;64.68;101490.56;5093701;27;45535;-63
2022/07/20 19:53:55;;;;;;;;;4.75;3.50;;;;;23.05;64.32;101494.38;5090333;27;45363;-63
2022/07/20 19:56:21;;;;;;;;;4.75;4.75;;;;;23.02;64.31;101499.09;5092564;27;45270;-65
2022/07/20 19:58:46;;;;;;;;;6.25;4.50;;;;;23.02;64.23;101492.75;5101699;27;45270;-66
2022/07/20 20:01:11;;;;;;;;;4.00;4.00;;;;;23.02;64.11;101490.91;5101607;27;45588;-66
2022/07/20 20:03:37;;;;;;;;;4.00;4.00;;;;;23.01;64.09;101500.09;5100792;27;45864;-61
2022/07/20 20:06:02;;;;;;;;;4.25;4.25;;;;;22.95;63.70;101507.97;5101476;27;45356;-64
2022/07/20 20:08:28;;;;;;;;;1.25;1.25;;;;;22.94;63.99;101511.69;5100162;27;45452;-66
2022/07/20 20:10:53;;;;;;;;;4.75;4.75;;;;;22.88;63.96;101513.06;5101506;27;45452;-62
2022/07/20 20:13:18;;;;;;;;;4.50;4.50;;;;;22.85;63.73;101521.56;5092279;27;51828;-65
2022/07/20 20:15:44;;;;;;;;;3.00;3.00;;;;;22.82;63.55;101518.19;5085397;27;45370;-62
2022/07/20 20:18:09;;;;;;;;;7.00;4.75;;;;;22.83;63.46;101529.00;5090501;27;45484;-63
2022/07/20 20:20:35;;;;;;;;;6.75;6.75;;;;;22.85;63.56;101520.69;5086384;27;45785;-63
2022/07/20 20:23:01;;;;;;;;;3.00;3.00;;;;;22.83;63.00;101520.81;5091209;27;45377;-61
2022/07/20 20:25:26;;;;;;;;;3.50;3.50;;;;;22.81;63.25;101513.72;5100648;27;45456;-63
2022/07/20 20:27:52;;;;;;;;;3.00;3.00;;;;;22.82;62.98;101504.53;5101208;27;45370;-64
2022/07/20 20:30:17;;;;;;;;;4.75;4.75;;;;;22.82;62.42;101510.88;5100848;27;45313;-62
2022/07/20 20:32:42;;;;;;;;;4.50;3.00;;;;;22.80;62.38;101506.53;5100292;27;45221;-64
2022/07/20 20:35:08;;;;;;;;;2.50;2.50;;;;;22.79;62.41;101523.94;5091964;27;45304;-64
2022/07/20 20:37:33;;;;;;;;;2.50;2.25;;;;;22.77;62.52;101513.13;5099101;27;45196;-61
2022/07/20 20:39:59;;;;;;;;;3.00;3.00;;;;;22.75;62.51;101519.72;5102215;27;45594;-65
2022/07/20 20:42:24;;;;;;;;;4.50;3.00;;;;;22.70;62.59;101525.56;5102566;27;47082;-65
2022/07/20 20:44:49;;;;;;;;;2.75;2.75;;;;;22.65;62.25;101525.94;5100489;27;45321;-62
2022/07/20 20:47:15;;;;;;;;;2.00;2.00;;;;;22.59;62.62;101533.78;5101055;27;45164;-66
2022/07/20 20:49:41;;;;;;;;;2.50;2.50;;;;;22.48;62.89;101528.34;5100481;27;45321;-64
2022/07/20 20:52:07;;;;;;;;;3.00;3.00;;;;;22.52;62.99;101517.03;5100370;27;46350;-63
2022/07/20 20:54:32;;;;;;;;;2.25;2.25;;;;;22.54;62.90;101534.16;5100496;27;45400;-64
2022/07/20 20:57:00;;;;;;;;;2.75;2.75;;;;;22.51;62.70;101533.56;5102833;27;45340;-65
2022/07/20 20:59:25;;;;;;;;;3.75;3.00;;;;;22.47;62.93;101537.53;5093810;27;47085;-65
2022/07/20 21:01:50;;;;;;;;;4.00;4.00;;;;;22.46;63.26;101535.78;5093111;27;45451;-63
2022/07/20 21:04:16;;;;;;;;;1.25;1.25;;;;;22.44;63.34;101541.41;5087280;27;45317;-64
2022/07/20 21:06:41;;;;;;;;;3.50;3.50;;;;;22.37;63.29;101534.69;5100753;27;45364;-64
2022/07/20 21:09:07;;;;;;;;;2.75;2.75;;;;;22.30;63.46;101533.47;5100061;27;45310;-65
2022/07/20 21:11:33;;;;;;;;;2.25;2.25;;;;;22.30;63.07;101538.06;5100857;27;45360;-65
2022/07/20 21:13:59;;;;;;;;;3.50;3.50;;;;;22.27;63.02;101540.06;5116414;27;45385;-63
2022/07/20 21:16:24;;;;;;;;;3.25;2.25;;;;;22.22;62.62;101547.75;5100592;27;45247;-65
2022/07/20 21:18:49;;;;;;;;;2.50;2.50;;;;;22.17;62.71;101547.28;5100514;27;45486;-64
2022/07/20 21:21:15;;;;;;;;;2.50;2.50;;;;;22.14;62.93;101547.53;5100599;27;46271;-64
2022/07/20 21:23:40;;;;;;;;;2.00;2.00;;;;;22.11;62.95;101549.66;5100324;27;45226;-65
2022/07/20 21:26:05;;;;;;;;;3.00;3.00;;;;;22.07;62.63;101550.88;5100705;27;45353;-65
2022/07/20 21:28:31;;;;;;;;;3.00;3.00;;;;;22.06;63.51;101547.28;5100492;27;45396;-64
2022/07/20 21:30:57;;;;;;;;;2.00;2.00;;;;;22.06;63.14;101547.28;5100168;27;45464;-65
2022/07/20 21:33:23;;;;;;;;;2.00;2.00;;;;;22.10;63.47;101554.25;5100124;27;45350;-64
2022/07/20 21:35:48;;;;;;;;;2.25;2.25;;;;;22.15;63.13;101542.94;5100317;27;45372;-65
2022/07/20 21:38:14;;;;;;;;;1.00;1.00;;;;;22.11;62.01;101538.72;5100174;27;45565;-64
2022/07/20 21:40:39;;;;;;;;;1.75;1.75;;;;;22.02;62.26;101547.66;5100263;27;45487;-64
2022/07/20 21:43:04;;;;;;;;;3.50;2.00;;;;;21.94;62.40;101542.78;5099783;27;45414;-65
2022/07/20 21:45:30;;;;;;;;;2.00;2.00;;;;;21.90;62.82;101550.34;5100050;27;45471;-64
2022/07/20 21:47:57;;;;;;;;;2.25;1.00;;;;;21.83;62.72;101543.66;5100068;27;45412;-64
2022/07/20 21:50:23;;;;;;;;;1.50;1.50;;;;;21.95;62.53;101555.44;5099841;27;45343;-65
2022/07/20 21:52:48;;;;;;;;;1.50;1.50;;;;;21.98;62.59;101560.69;5099991;27;45281;-66
2022/07/20 21:55:14;;;;;;;;;2.00;2.00;;;;;21.90;62.86;101553.09;5100293;27;45298;-64
2022/07/20 21:57:39;;;;;;;;;6.25;4.25;;;;;21.94;63.04;101548.25;5099978;27;45163;-65
2022/07/20 22:00:12;;;;;;;;;2.75;2.00;;;;;22.03;62.47;101543.94;5099838;27;45355;-65
2022/07/20 22:02:37;;;;;;;;;1.50;1.50;;;;;22.10;62.60;101551.50;5099918;27;45267;-65
2022/07/20 22:05:03;;;;;;;;;2.50;1.00;;;;;22.12;62.30;101552.22;5100009;27;45218;-63
2022/07/20 22:07:29;;;;;;;;;1.00;1.00;;;;;22.07;62.31;101549.03;5099822;27;46244;-65
2022/07/20 22:09:54;;;;;;;;;2.50;2.50;;;;;22.05;62.27;101550.13;5099935;27;45360;-65
2022/07/20 22:12:19;;;;;;;;;0.75;0.75;;;;;22.04;62.32;101568.38;5099880;27;45302;-65
2022/07/20 22:14:44;;;;;;;;;3.00;2.00;;;;;22.01;62.70;101575.97;5099852;27;45400;-65
2022/07/20 22:17:10;;;;;;;;;4.00;2.00;;;;;21.97;63.09;101566.22;5099648;27;45345;-65
2022/07/20 22:19:35;;;;;;;;;2.00;2.00;;;;;22.01;62.77;101573.22;5099758;27;46076;-65
2022/07/20 22:22:01;;;;;;;;;3.75;2.00;;;;;21.95;62.76;101580.00;5099695;27;45479;-64
2022/07/20 22:24:26;;;;;;;;;1.50;1.50;;;;;21.94;62.90;101578.28;5099496;27;45329;-65
2022/07/20 22:26:51;;;;;;;;;2.00;2.00;;;;;21.96;63.09;101575.41;5099509;27;45527;-64
2022/07/20 22:29:17;;;;;;;;;2.00;2.00;;;;;21.99;63.13;101578.81;5099805;27;46018;-65
2022/07/20 22:31:42;;;;;;;;;2.25;2.25;;;;;21.98;62.88;101584.38;5099333;27;45432;-65
2022/07/20 22:34:07;;;;;;;;;1.00;1.00;;;;;;;;5099706;27;45459;-64
2022/07/20 22:36:33;;;;;;;;;1.75;1.75;;;;;21.88;62.95;101578.75;5099599;27;45287;-64
2022/07/20 22:38:58;;;;;;;;;2.00;2.00;;;;;21.75;63.36;101565.25;5115295;27;48572;-64
2022/07/20 22:41:23;;;;;;;;;3.25;3.25;;;;;21.89;63.41;101589.56;5099509;27;45292;-64
2022/07/20 22:43:49;;;;;;;;;1.00;1.00;;;;;21.88;63.32;101596.00;5099739;27;45340;-64
2022/07/20 22:46:14;;;;;;;;;3.25;3.25;;;;;21.92;63.15;101595.78;5099230;27;45506;-64
2022/07/20 22:48:40;;;;;;;;;1.75;1.75;;;;;22.00;63.17;101610.59;5099545;27;45316;-65
2022/07/20 22:51:05;;;;;;;;;0.75;0.75;;;;;22.06;62.81;101601.91;5099320;27;45359;-65
2022/07/20 22:53:30;;;;;;;;;2.50;2.50;;;;;22.10;62.61;101617.06;5099602;27;45344;-65
2022/07/20 22:55:56;;;;;;;;;1.00;1.00;;;;;22.09;62.47;101609.84;5099251;27;45392;-64
2022/07/20 22:58:22;;;;;;;;;1.00;1.00;;;;;22.09;62.38;101604.41;5099083;27;46443;-65
